Time;durP1;ratioP1;P1;durP2;ratioP2;P2;SDS_P1;SDS_P2;PMS_P1;PMS_P2;Temp;Humidity;BMP_temperature;BMP_pressure;BME280_temperature;BME280_humidity;BME280_pressure;Samples;Min_cycle;Max_cycle;Signal;HPM_P1;HPM_P2
2024/01/12 00:02:00;;;;;;;5.93;1.80;;;;;;;;;;5048741;28;20074;-84
2024/01/12 00:04:27;;;;;;;5.25;1.73;;;;;;;;;;5052417;28;20039;-84
2024/01/12 00:06:56;;;;;;;5.60;1.90;;;;;;;;;;5047353;28;20032;-83
2024/01/12 00:09:24;;;;;;;7.43;1.90;;;;;;;;;;5045998;28;20036;-84
2024/01/12 00:11:51;;;;;;;5.82;1.88;;;;;;;;;;5050077;28;20171;-83
2024/01/12 00:14:18;;;;;;;6.65;2.00;;;;;;;;;;5047652;28;20123;-84
2024/01/12 00:16:48;;;;;;;5.78;1.73;;;;;;;;;;5049674;28;20116;-81
2024/01/12 00:19:17;;;;;;;7.20;1.75;;;;;;;;;;5048257;28;20127;-82
2024/01/12 00:21:46;;;;;;;5.85;1.60;;;;;;;;;;5051268;28;20558;-83
2024/01/12 00:24:13;;;;;;;3.75;1.05;;;;;;;;;;5047351;28;20074;-82
2024/01/12 00:26:42;;;;;;;5.00;1.38;;;;;;;;;;5049792;28;20072;-82
2024/01/12 00:29:11;;;;;;;4.57;1.48;;;;;;;;;;5047745;28;20128;-83
2024/01/12 00:31:39;;;;;;;5.72;1.27;;;;;;;;;;5047879;28;20111;-82
2024/01/12 00:34:08;;;;;;;4.97;1.30;;;;;;;;;;5046557;28;20036;-83
2024/01/12 00:36:37;;;;;;;4.95;1.25;;;;;;;;;;5047627;28;20032;-84
2024/01/12 00:39:04;;;;;;;4.35;1.40;;;;;;;;;;5049192;28;20029;-83
2024/01/12 00:41:32;;;;;;;3.65;1.02;;;;;;;;;;5046923;28;20028;-83
2024/01/12 00:44:01;;;;;;;5.78;1.98;;;;;;;;;;5050026;28;20102;-84
2024/01/12 00:46:28;;;;;;;5.13;1.40;;;;;;;;;;5043134;28;20035;-83
2024/01/12 00:48:55;;;;;;;4.70;1.20;;;;;;;;;;5047944;28;20080;-83
2024/01/12 00:51:26;;;;;;;3.90;1.27;;;;;;;;;;5047870;28;20545;-83
2024/01/12 00:53:52;;;;;;;4.82;1.23;;;;;;;;;;5046875;28;20076;-83
2024/01/12 00:56:20;;;;;;;4.35;1.13;;;;;;;;;;5045769;28;22008;-83
2024/01/12 00:58:48;;;;;;;3.45;1.20;;;;;;;;;;5048058;28;20093;-83
2024/01/12 01:01:15;;;;;;;4.68;1.30;;;;;;;;;;5044846;28;20033;-83
2024/01/12 01:03:43;;;;;;;3.38;1.10;;;;;;;;;;5050498;28;20167;-83
2024/01/12 01:06:10;;;;;;;3.78;1.10;;;;;;;;;;5048463;28;20052;-82
2024/01/12 01:08:36;;;;;;;5.88;1.45;;;;;;;;;;5050032;28;21108;-82
2024/01/12 01:11:03;;;;;;;3.50;1.20;;;;;;;;;;5041793;28;20033;-84
2024/01/12 01:13:31;;;;;;;6.05;1.60;;;;;;;;;;5049769;28;20661;-85
2024/01/12 01:15:59;;;;;;;5.38;1.38;;;;;;;;;;5051717;28;20039;-84
2024/01/12 01:18:27;;;;;;;4.20;1.35;;;;;;;;;;5045601;28;20028;-84
2024/01/12 01:20:54;;;;;;;6.82;1.58;;;;;;;;;;5048473;28;20025;-84
2024/01/12 01:23:23;;;;;;;5.72;1.30;;;;;;;;;;5044480;28;20151;-84
2024/01/12 01:25:50;;;;;;;5.65;1.40;;;;;;;;;;5050642;28;20143;-83
2024/01/12 01:28:17;;;;;;;5.85;1.70;;;;;;;;;;5063793;28;20041;-84
2024/01/12 01:30:44;;;;;;;5.85;1.40;;;;;;;;;;5052098;28;20047;-83
2024/01/12 01:33:12;;;;;;;4.45;1.40;;;;;;;;;;5048470;28;20492;-84
2024/01/12 01:35:39;;;;;;;5.32;1.38;;;;;;;;;;5069769;28;20032;-83
2024/01/12 01:38:08;;;;;;;6.55;2.10;;;;;;;;;;5067147;28;20077;-84
2024/01/12 01:40:37;;;;;;;6.43;1.73;;;;;;;;;;5069157;28;20103;-83
2024/01/12 01:43:10;;;;;;;6.53;1.55;;;;;;;;;;5066234;28;20731;-84
2024/01/12 01:45:38;;;;;;;4.28;1.40;;;;;;;;;;5065411;28;20450;-83
2024/01/12 01:48:06;;;;;;;7.60;1.63;;;;;;;;;;5066286;28;20103;-84
2024/01/12 01:50:34;;;;;;;5.97;1.42;;;;;;;;;;5068729;28;20020;-84
2024/01/12 01:53:03;;;;;;;6.85;1.40;;;;;;;;;;5066865;28;20482;-83
2024/01/12 01:55:30;;;;;;;5.07;1.48;;;;;;;;;;5068927;28;20088;-83
2024/01/12 01:57:59;;;;;;;6.00;1.40;;;;;;;;;;5068990;28;20024;-83
2024/01/12 02:00:27;;;;;;;6.35;1.23;;;;;;;;;;5049580;28;20501;-84
2024/01/12 02:02:55;;;;;;;4.95;1.70;;;;;;;;;;5051932;28;20614;-83
2024/01/12 02:05:23;;;;;;;5.35;1.40;;;;;;;;;;5066108;28;20102;-83
2024/01/12 02:07:49;;;;;;;5.68;1.42;;;;;;;;;;5035524;28;20039;-84
2024/01/12 02:10:15;;;;;;;5.70;1.75;;;;;;;;;;5068044;28;20020;-83
2024/01/12 02:12:41;;;;;;;5.57;1.42;;;;;;;;;;5053677;28;20758;-83
2024/01/12 02:15:08;;;;;;;5.30;1.30;;;;;;;;;;5064109;28;20077;-84
2024/01/12 02:17:37;;;;;;;5.45;1.30;;;;;;;;;;5051041;28;20028;-84
2024/01/12 02:20:05;;;;;;;7.13;1.85;;;;;;;;;;5044553;28;20020;-83
2024/01/12 02:22:32;;;;;;;7.80;2.42;;;;;;;;;;5065378;28;20028;-84
2024/01/12 02:25:01;;;;;;;5.68;1.98;;;;;;;;;;5065250;28;20799;-83
2024/01/12 02:27:30;;;;;;;6.60;2.30;;;;;;;;;;5069875;28;20047;-84
2024/01/12 02:29:57;;;;;;;6.32;1.83;;;;;;;;;;5054878;28;20020;-84
2024/01/12 02:32:26;;;;;;;6.90;1.70;;;;;;;;;;5067154;28;20085;-84
2024/01/12 02:34:53;;;;;;;5.25;1.23;;;;;;;;;;5052823;28;20028;-84
2024/01/12 02:37:20;;;;;;;3.67;1.15;;;;;;;;;;5063374;28;20028;-84
2024/01/12 02:39:48;;;;;;;3.63;1.00;;;;;;;;;;5066048;28;20085;-84
2024/01/12 02:42:15;;;;;;;5.93;1.38;;;;;;;;;;5065716;28;20412;-84
2024/01/12 02:44:43;;;;;;;5.45;1.17;;;;;;;;;;5069360;28;20042;-83
2024/01/12 02:47:13;;;;;;;4.20;1.10;;;;;;;;;;5063692;28;20115;-84
2024/01/12 02:49:40;;;;;;;4.43;1.00;;;;;;;;;;5049542;28;20640;-84
2024/01/12 02:52:06;;;;;;;6.32;1.00;;;;;;;;;;5065455;28;20080;-84
2024/01/12 02:54:33;;;;;;;6.53;1.77;;;;;;;;;;5050295;28;20032;-84
2024/01/12 02:57:02;;;;;;;4.78;1.60;;;;;;;;;;5062594;28;20028;-84
2024/01/12 02:59:29;;;;;;;5.90;1.60;;;;;;;;;;5066275;28;20028;-84
2024/01/12 03:01:56;;;;;;;7.35;2.03;;;;;;;;;;5049298;28;20023;-83
2024/01/12 03:04:24;;;;;;;7.53;1.85;;;;;;;;;;5049743;28;20031;-84
2024/01/12 03:06:50;;;;;;;6.38;1.60;;;;;;;;;;5051807;28;20081;-83
2024/01/12 03:09:17;;;;;;;4.80;1.40;;;;;;;;;;5062873;28;20067;-84
2024/01/12 03:11:46;;;;;;;4.80;1.30;;;;;;;;;;5065268;28;20741;-84
2024/01/12 03:14:13;;;;;;;4.97;1.00;;;;;;;;;;5065092;28;20547;-83
2024/01/12 03:16:41;;;;;;;4.03;0.88;;;;;;;;;;5065866;28;20319;-84
2024/01/12 03:19:08;;;;;;;4.78;1.20;;;;;;;;;;5067751;28;20043;-83
2024/01/12 03:21:37;;;;;;;3.65;1.00;;;;;;;;;;5052191;28;20032;-84
2024/01/12 03:24:04;;;;;;;4.38;1.10;;;;;;;;;;5063951;28;20668;-84
2024/01/12 03:26:37;;;;;;;3.97;1.00;;;;;;;;;;5046289;28;20049;-83
2024/01/12 03:29:05;;;;;;;5.18;1.38;;;;;;;;;;5044229;28;20852;-84
2024/01/12 03:31:34;;;;;;;4.32;1.10;;;;;;;;;;5045258;28;20029;-83
2024/01/12 03:34:02;;;;;;;5.25;1.50;;;;;;;;;;5045093;28;20110;-84
2024/01/12 03:36:31;;;;;;;5.75;1.27;;;;;;;;;;5045567;28;20040;-84
2024/01/12 03:38:59;;;;;;;6.45;1.50;;;;;;;;;;5048607;28;20029;-84
2024/01/12 03:41:26;;;;;;;4.25;1.05;;;;;;;;;;5048712;28;20021;-83
2024/01/12 03:43:53;;;;;;;5.28;1.40;;;;;;;;;;5046496;28;20025;-84
2024/01/12 03:46:19;;;;;;;7.03;1.30;;;;;;;;;;5041303;28;20119;-84
2024/01/12 03:48:47;;;;;;;4.47;1.23;;;;;;;;;;5042485;28;20060;-84
2024/01/12 03:51:13;;;;;;;5.03;1.50;;;;;;;;;;5040741;28;20041;-84
2024/01/12 03:53:40;;;;;;;;;;;;;;;;;;5044633;28;20131;-84
2024/01/12 03:56:08;;;;;;;5.80;1.65;;;;;;;;;;5044187;28;19947;-83
2024/01/12 03:58:38;;;;;;;5.25;1.70;;;;;;;;;;5046764;28;20014;-84
2024/01/12 04:01:07;;;;;;;5.82;1.50;;;;;;;;;;5044375;28;20516;-84
2024/01/12 04:03:34;;;;;;;5.55;1.42;;;;;;;;;;5046486;28;20673;-84
2024/01/12 04:06:07;;;;;;;5.55;1.30;;;;;;;;;;5043157;28;20112;-84
2024/01/12 04:08:35;;;;;;;6.15;1.40;;;;;;;;;;5047305;28;20036;-84
2024/01/12 04:11:05;;;;;;;3.90;0.90;;;;;;;;;;5043745;28;20028;-84
2024/01/12 04:13:34;;;;;;;4.70;1.20;;;;;;;;;;5045689;28;20025;-84
2024/01/12 04:16:01;;;;;;;5.50;1.40;;;;;;;;;;5041378;28;20036;-84
2024/01/12 04:18:29;;;;;;;4.78;1.30;;;;;;;;;;5046751;28;20083;-84
2024/01/12 04:20:56;;;;;;;5.68;1.30;;;;;;;;;;5044452;28;20150;-84
2024/01/12 04:23:25;;;;;;;6.57;1.73;;;;;;;;;;5041873;28;20029;-84
2024/01/12 04:25:52;;;;;;;6.35;1.70;;;;;;;;;;5049555;28;20086;-84
2024/01/12 04:28:20;;;;;;;6.55;2.00;;;;;;;;;;5068321;28;20094;-84
2024/01/12 04:30:49;;;;;;;5.80;1.70;;;;;;;;;;5068623;28;20025;-84
2024/01/12 04:33:16;;;;;;;6.30;1.80;;;;;;;;;;5049355;28;20447;-83
2024/01/12 04:35:45;;;;;;;6.32;1.50;;;;;;;;;;5070286;28;20097;-85
2024/01/12 04:38:12;;;;;;;9.02;3.10;;;;;;;;;;5052278;28;20061;-84
2024/01/12 04:40:41;;;;;;;8.07;3.42;;;;;;;;;;5070884;28;20024;-84
2024/01/12 04:43:10;;;;;;;7.68;2.70;;;;;;;;;;5051966;28;20247;-84
2024/01/12 04:45:38;;;;;;;7.22;2.90;;;;;;;;;;5070612;28;20047;-84
2024/01/12 04:48:06;;;;;;;8.30;3.00;;;;;;;;;;5048453;28;20654;-84
2024/01/12 04:50:33;;;;;;;8.25;3.05;;;;;;;;;;5067580;28;20091;-85
2024/01/12 04:53:00;;;;;;;7.65;2.38;;;;;;;;;;5052122;28;20575;-84
2024/01/12 04:55:28;;;;;;;6.38;1.90;;;;;;;;;;5071485;28;20063;-84
2024/01/12 04:57:56;;;;;;;5.80;1.65;;;;;;;;;;5070648;28;20278;-85
2024/01/12 05:00:25;;;;;;;7.38;1.42;;;;;;;;;;5069542;28;20076;-84
2024/01/12 05:02:54;;;;;;;5.60;1.38;;;;;;;;;;5053904;28;20047;-84
2024/01/12 05:05:22;;;;;;;4.97;1.00;;;;;;;;;;5067369;28;20074;-83
2024/01/12 05:07:48;;;;;;;7.07;1.73;;;;;;;;;;5055014;28;20028;-84
2024/01/12 05:10:15;;;;;;;5.00;1.70;;;;;;;;;;5051582;28;20024;-83
2024/01/12 05:12:42;;;;;;;6.20;2.00;;;;;;;;;;5055489;28;20059;-83
2024/01/12 05:15:10;;;;;;;6.75;1.98;;;;;;;;;;5053199;28;20124;-84
2024/01/12 05:17:38;;;;;;;5.63;1.80;;;;;;;;;;5052268;28;20500;-84
2024/01/12 05:20:06;;;;;;;8.07;2.00;;;;;;;;;;5065682;28;20020;-84
2024/01/12 05:22:37;;;;;;;7.40;1.92;;;;;;;;;;5067095;28;20111;-84
2024/01/12 05:25:08;;;;;;;7.00;2.28;;;;;;;;;;5068335;28;20052;-83
2024/01/12 05:27:35;;;;;;;7.22;2.45;;;;;;;;;;5048099;28;20044;-83
2024/01/12 05:30:03;;;;;;;7.00;2.50;;;;;;;;;;5048428;28;20734;-84
2024/01/12 05:32:30;;;;;;;8.65;2.88;;;;;;;;;;5051027;28;20044;-84
2024/01/12 05:34:56;;;;;;;9.30;2.80;;;;;;;;;;5051424;28;20028;-83
2024/01/12 05:37:25;;;;;;;8.88;3.13;;;;;;;;;;5047903;28;20033;-83
2024/01/12 05:39:52;;;;;;;7.68;2.67;;;;;;;;;;5047697;28;20094;-83
2024/01/12 05:42:20;;;;;;;8.40;2.72;;;;;;;;;;5046008;28;21621;-83
2024/01/12 05:44:47;;;;;;;8.10;2.70;;;;;;;;;;5049200;28;20025;-83
2024/01/12 05:47:14;;;;;;;7.57;2.63;;;;;;;;;;5051399;28;20040;-83
2024/01/12 05:49:41;;;;;;;10.13;2.88;;;;;;;;;;5053744;28;20162;-83
2024/01/12 05:52:09;;;;;;;8.43;2.58;;;;;;;;;;5052066;28;20028;-84
2024/01/12 05:54:36;;;;;;;8.20;2.58;;;;;;;;;;5051291;28;20587;-82
2024/01/12 05:57:04;;;;;;;9.00;2.50;;;;;;;;;;5043574;28;20032;-83
2024/01/12 05:59:33;;;;;;;9.43;2.17;;;;;;;;;;5048470;28;20131;-83
2024/01/12 06:02:01;;;;;;;7.97;2.30;;;;;;;;;;5050143;28;20031;-83
2024/01/12 06:04:28;;;;;;;7.72;2.25;;;;;;;;;;5050956;28;20109;-83
2024/01/12 06:06:55;;;;;;;7.78;2.13;;;;;;;;;;5048799;28;20028;-83
2024/01/12 06:09:22;;;;;;;9.32;2.33;;;;;;;;;;5048046;28;20032;-83
2024/01/12 06:11:49;;;;;;;8.48;2.25;;;;;;;;;;5052252;28;20040;-84
2024/01/12 06:14:17;;;;;;;10.02;2.33;;;;;;;;;;5049996;28;20063;-84
2024/01/12 06:16:45;;;;;;;7.55;1.90;;;;;;;;;;5053002;28;20029;-84
2024/01/12 06:19:13;;;;;;;7.65;2.20;;;;;;;;;;5048827;28;20036;-85
2024/01/12 06:21:40;;;;;;;10.52;2.30;;;;;;;;;;5050287;28;20131;-84
2024/01/12 06:24:07;;;;;;;10.00;2.72;;;;;;;;;;5046757;28;20032;-84
2024/01/12 06:26:33;;;;;;;;;;;;;;;;;;5057763;28;20094;-84
2024/01/12 06:29:00;;;;;;;8.30;2.90;;;;;;;;;;5072874;28;19912;-84
2024/01/12 06:31:31;;;;;;;8.15;2.70;;;;;;;;;;5071870;28;20024;-84
2024/01/12 06:33:58;;;;;;;8.32;2.80;;;;;;;;;;5053164;28;20069;-84
2024/01/12 06:36:27;;;;;;;7.82;2.70;;;;;;;;;;5072513;28;20111;-83
2024/01/12 06:38:56;;;;;;;6.93;2.03;;;;;;;;;;5052357;28;20028;-84
2024/01/12 06:41:23;;;;;;;8.55;2.78;;;;;;;;;;5051362;28;20554;-84
2024/01/12 06:43:52;;;;;;;9.82;3.50;;;;;;;;;;5072744;28;20062;-84
2024/01/12 06:46:20;;;;;;;12.57;4.80;;;;;;;;;;5058180;28;20032;-83
2024/01/12 06:48:47;;;;;;;15.02;5.85;;;;;;;;;;5054480;28;20054;-86
2024/01/12 06:51:21;;;;;;;11.45;4.65;;;;;;;;;;5068205;28;20024;-84
2024/01/12 06:53:49;;;;;;;10.95;5.05;;;;;;;;;;5053956;28;20036;-84
2024/01/12 06:56:22;;;;;;;11.65;5.05;;;;;;;;;;5051586;28;20024;-85
2024/01/12 06:58:48;;;;;;;11.95;6.35;;;;;;;;;;5073667;28;20058;-83
2024/01/12 07:01:18;;;;;;;12.98;6.10;;;;;;;;;;5054870;28;20031;-83
2024/01/12 07:03:45;;;;;;;12.23;6.00;;;;;;;;;;5060963;28;20247;-83
2024/01/12 07:06:13;;;;;;;10.80;5.70;;;;;;;;;;5053327;28;20328;-85
2024/01/12 07:08:42;;;;;;;9.50;4.22;;;;;;;;;;5057310;28;20032;-84
2024/01/12 07:11:11;;;;;;;10.60;4.85;;;;;;;;;;5051584;28;20055;-83
2024/01/12 07:13:37;;;;;;;11.30;4.82;;;;;;;;;;5057041;28;20028;-83
2024/01/12 07:16:05;;;;;;;10.10;4.65;;;;;;;;;;5072239;28;20028;-82
2024/01/12 07:18:33;;;;;;;11.20;4.65;;;;;;;;;;5056861;28;20097;-83
2024/01/12 07:21:04;;;;;;;10.32;5.05;;;;;;;;;;5066524;28;20057;-74
2024/01/12 07:23:32;;;;;;;10.60;4.30;;;;;;;;;;5064886;28;20028;-74
2024/01/12 07:26:00;;;;;;;8.85;4.25;;;;;;;;;;5058460;28;20043;-75
2024/01/12 07:28:26;;;;;;;9.52;4.63;;;;;;;;;;5070828;28;20031;-75
2024/01/12 07:30:53;;;;;;;10.27;4.10;;;;;;;;;;5068671;28;20051;-75
2024/01/12 07:33:22;;;;;;;11.48;4.00;;;;;;;;;;5065168;28;20020;-75
2024/01/12 07:35:51;;;;;;;10.77;4.28;;;;;;;;;;5071103;28;20028;-74
2024/01/12 07:38:18;;;;;;;11.55;4.30;;;;;;;;;;5052637;28;20137;-76
2024/01/12 07:40:47;;;;;;;11.32;4.45;;;;;;;;;;5071971;28;20035;-75
2024/01/12 07:43:14;;;;;;;9.60;4.25;;;;;;;;;;5067524;28;20547;-75
2024/01/12 07:45:42;;;;;;;12.73;5.32;;;;;;;;;;5053481;28;20645;-74
2024/01/12 07:48:09;;;;;;;13.27;6.65;;;;;;;;;;5054613;28;20032;-75
2024/01/12 07:50:38;;;;;;;14.30;7.15;;;;;;;;;;5071620;28;20052;-75
2024/01/12 07:53:07;;;;;;;12.00;5.63;;;;;;;;;;5046973;28;20450;-75
2024/01/12 07:55:34;;;;;;;11.13;5.55;;;;;;;;;;5064236;28;20024;-74
2024/01/12 07:58:02;;;;;;;11.70;5.60;;;;;;;;;;5064127;28;20075;-74
2024/01/12 08:00:31;;;;;;;12.55;5.47;;;;;;;;;;5069202;28;20016;-74
2024/01/12 08:02:58;;;;;;;10.95;5.72;;;;;;;;;;5051532;28;20032;-74
2024/01/12 08:05:28;;;;;;;13.18;5.65;;;;;;;;;;5054533;28;20502;-74
2024/01/12 08:07:56;;;;;;;10.50;4.82;;;;;;;;;;5050605;28;20024;-74
2024/01/12 08:10:23;;;;;;;12.23;5.10;;;;;;;;;;5051370;28;20039;-73
2024/01/12 08:12:49;;;;;;;14.23;4.50;;;;;;;;;;5069135;28;20024;-74
2024/01/12 08:15:17;;;;;;;9.85;4.78;;;;;;;;;;5066681;28;20138;-75
2024/01/12 08:17:44;;;;;;;;;;;;;;;;;;5053728;28;20032;-74
2024/01/12 08:20:12;;;;;;;10.93;4.32;;;;;;;;;;5065452;28;20586;-75
2024/01/12 08:22:40;;;;;;;10.15;4.50;;;;;;;;;;5070932;28;20027;-75
2024/01/12 08:25:06;;;;;;;9.65;4.22;;;;;;;;;;5046292;28;20570;-75
2024/01/12 08:27:34;;;;;;;9.38;3.97;;;;;;;;;;5047195;28;20040;-76
2024/01/12 08:30:22;;;;;;;10.43;3.80;;;;;;;;;;5046476;28;20090;-75
2024/01/12 08:32:49;;;;;;;10.27;3.08;;;;;;;;;;5048897;28;20037;-76
2024/01/12 08:35:18;;;;;;;9.25;3.20;;;;;;;;;;5042212;28;20029;-76
2024/01/12 08:37:47;;;;;;;8.23;3.20;;;;;;;;;;5046295;28;20051;-77
2024/01/12 08:40:14;;;;;;;8.50;3.13;;;;;;;;;;5045403;28;20567;-76
2024/01/12 08:42:41;;;;;;;8.40;3.20;;;;;;;;;;5049015;28;20116;-76
2024/01/12 08:45:10;;;;;;;8.05;3.10;;;;;;;;;;5047396;28;20085;-76
2024/01/12 08:47:37;;;;;;;8.80;3.17;;;;;;;;;;5047609;28;20043;-76
2024/01/12 08:50:05;;;;;;;8.57;3.38;;;;;;;;;;5046414;28;20055;-75
2024/01/12 08:52:33;;;;;;;7.07;2.85;;;;;;;;;;5046627;28;20037;-76
2024/01/12 08:55:04;;;;;;;8.38;3.33;;;;;;;;;;5043297;28;20313;-76
2024/01/12 08:57:35;;;;;;;8.55;3.60;;;;;;;;;;5046820;28;20495;-76
2024/01/12 09:00:05;;;;;;;8.35;3.05;;;;;;;;;;5041707;28;20552;-75
2024/01/12 09:02:32;;;;;;;8.57;3.08;;;;;;;;;;5043392;28;20037;-78
2024/01/12 09:04:59;;;;;;;9.68;5.18;;;;;;;;;;5047807;28;20062;-76
2024/01/12 09:07:26;;;;;;;18.92;12.13;;;;;;;;;;5042185;28;20021;-75
2024/01/12 09:09:53;;;;;;;19.88;13.88;;;;;;;;;;5045521;28;20037;-75
2024/01/12 09:12:20;;;;;;;9.88;4.80;;;;;;;;;;5042913;28;20075;-75
2024/01/12 09:14:48;;;;;;;8.32;3.63;;;;;;;;;;5032022;28;20568;-75
2024/01/12 09:17:17;;;;;;;9.23;3.13;;;;;;;;;;5042897;28;20036;-75
2024/01/12 09:19:44;;;;;;;8.60;2.20;;;;;;;;;;5044889;28;20858;-75
2024/01/12 09:22:13;;;;;;;6.90;1.70;;;;;;;;;;5042414;28;20055;-75
2024/01/12 09:24:41;;;;;;;7.05;1.80;;;;;;;;;;5041412;28;20123;-77
2024/01/12 09:27:08;;;;;;;9.52;1.80;;;;;;;;;;5041733;28;20053;-75
2024/01/12 09:29:36;;;;;;;6.82;1.77;;;;;;;;;;5047164;28;20539;-75
2024/01/12 09:32:06;;;;;;;7.10;1.80;;;;;;;;;;5043456;28;20033;-75
2024/01/12 09:34:33;;;;;;;5.15;1.20;;;;;;;;;;5046678;28;20025;-77
2024/01/12 09:37:00;;;;;;;5.15;1.40;;;;;;;;;;5044611;28;20028;-77
2024/01/12 09:39:28;;;;;;;5.57;1.40;;;;;;;;;;5046003;28;20036;-75
2024/01/12 09:42:09;;;;;;;7.47;2.05;;;;;;;;;;5046164;28;20025;-77
2024/01/12 09:44:40;;;;;;;6.53;1.40;;;;;;;;;;5046592;28;20036;-77
2024/01/12 09:47:09;;;;;;;4.72;1.42;;;;;;;;;;5044076;28;20111;-78
2024/01/12 09:49:37;;;;;;;8.05;1.75;;;;;;;;;;5046343;28;20039;-77
2024/01/12 09:52:03;;;;;;;6.85;1.60;;;;;;;;;;5026971;28;20037;-77
2024/01/12 09:54:32;;;;;;;5.07;1.30;;;;;;;;;;5045121;28;20062;-77
2024/01/12 09:57:00;;;;;;;4.90;1.15;;;;;;;;;;5045091;28;20021;-77
2024/01/12 09:59:29;;;;;;;5.85;1.55;;;;;;;;;;5032058;28;20036;-77
2024/01/12 10:01:57;;;;;;;5.60;1.50;;;;;;;;;;5029819;28;20690;-77
2024/01/12 10:04:25;;;;;;;5.70;1.40;;;;;;;;;;5045303;28;20048;-75
2024/01/12 10:06:53;;;;;;;4.70;1.50;;;;;;;;;;5045558;28;20025;-75
2024/01/12 10:09:24;;;;;;;5.85;1.77;;;;;;;;;;5042563;28;20047;-75
2024/01/12 10:11:54;;;;;;;6.65;2.30;;;;;;;;;;5042131;28;20032;-76
2024/01/12 10:14:25;;;;;;;7.35;2.00;;;;;;;;;;5026558;28;20037;-75
2024/01/12 10:16:58;;;;;;;6.88;1.63;;;;;;;;;;5045848;28;20138;-76
2024/01/12 10:19:26;;;;;;;7.65;1.90;;;;;;;;;;5040832;28;20537;-75
2024/01/12 10:21:54;;;;;;;5.35;1.63;;;;;;;;;;5046567;28;20465;-83
2024/01/12 10:24:27;;;;;;;4.80;1.27;;;;;;;;;;5044825;28;20159;-77
2024/01/12 10:27:02;;;;;;;4.25;1.30;;;;;;;;;;5043196;28;20052;-77
2024/01/12 10:29:32;;;;;;;7.82;1.10;;;;;;;;;;5044723;28;20044;-77
2024/01/12 10:32:02;;;;;;;4.97;1.15;;;;;;;;;;5042888;28;20942;-75
2024/01/12 10:34:33;;;;;;;3.83;1.10;;;;;;;;;;5046107;28;20032;-76
2024/01/12 10:36:59;;;;;;;4.70;1.33;;;;;;;;;;5047146;28;20017;-76
2024/01/12 10:39:32;;;;;;;5.50;1.40;;;;;;;;;;5046623;28;20024;-76
2024/01/12 10:42:03;;;;;;;4.75;1.40;;;;;;;;;;5046224;28;20017;-76
2024/01/12 10:44:33;;;;;;;9.18;1.67;;;;;;;;;;5042689;28;20050;-75
2024/01/12 10:47:05;;;;;;;4.40;1.45;;;;;;;;;;5042992;28;20020;-75
2024/01/12 10:49:38;;;;;;;7.00;2.20;;;;;;;;;;5045240;28;20032;-82
2024/01/12 10:52:27;;;;;;;5.40;1.85;;;;;;;;;;5041564;28;20029;-82
2024/01/12 10:55:13;;;;;;;5.32;2.05;;;;;;;;;;5045774;28;20681;-82
2024/01/12 10:57:42;;;;;;;6.40;1.90;;;;;;;;;;5044148;28;20086;-81
2024/01/12 11:00:10;;;;;;;6.00;1.70;;;;;;;;;;5042622;28;20111;-82
2024/01/12 11:02:41;;;;;;;5.30;1.60;;;;;;;;;;5042978;28;20052;-82
2024/01/12 11:05:12;;;;;;;5.80;1.50;;;;;;;;;;5041122;28;20540;-81
2024/01/12 11:07:41;;;;;;;5.18;1.58;;;;;;;;;;5047729;28;20255;-82
2024/01/12 11:10:08;;;;;;;5.57;1.60;;;;;;;;;;5042439;28;20043;-81
2024/01/12 11:12:39;;;;;;;5.72;1.63;;;;;;;;;;5043767;28;20021;-81
2024/01/12 11:15:08;;;;;;;7.22;1.92;;;;;;;;;;5042504;28;20407;-81
2024/01/12 11:17:36;;;;;;;6.93;2.13;;;;;;;;;;5044150;28;20028;-81
2024/01/12 11:20:18;;;;;;;5.63;1.80;;;;;;;;;;5043719;28;20561;-81
2024/01/12 11:22:49;;;;;;;7.05;2.00;;;;;;;;;;5046121;28;20029;-81
2024/01/12 11:25:20;;;;;;;5.40;1.85;;;;;;;;;;5039189;28;20035;-81
2024/01/12 11:27:53;;;;;;;8.60;2.15;;;;;;;;;;5044692;28;20045;-81
2024/01/12 11:30:24;;;;;;;7.00;2.60;;;;;;;;;;5025370;28;20036;-81
2024/01/12 11:33:03;;;;;;;6.55;2.53;;;;;;;;;;5044455;28;20889;-82
2024/01/12 11:35:33;;;;;;;8.05;3.17;;;;;;;;;;5043100;28;20032;-83
2024/01/12 11:38:07;;;;;;;8.40;3.40;;;;;;;;;;5047044;28;20032;-82
2024/01/12 11:40:34;;;;;;;9.05;3.92;;;;;;;;;;5050632;28;20028;-81
2024/01/12 11:43:02;;;;;;;10.45;3.83;;;;;;;;;;5047773;28;20788;-81
2024/01/12 11:45:32;;;;;;;9.52;4.20;;;;;;;;;;5049409;28;20029;-82
2024/01/12 11:48:03;;;;;;;9.18;4.35;;;;;;;;;;5034387;28;20114;-82
2024/01/12 11:50:31;;;;;;;10.55;4.97;;;;;;;;;;5047850;28;20443;-82
2024/01/12 11:53:00;;;;;;;9.80;4.75;;;;;;;;;;5047529;28;20131;-81
2024/01/12 11:55:28;;;;;;;11.20;4.57;;;;;;;;;;5050864;28;20052;-82
2024/01/12 11:57:55;;;;;;;8.95;3.80;;;;;;;;;;5048557;28;20548;-82
2024/01/12 12:00:23;;;;;;;8.90;3.17;;;;;;;;;;5047712;28;20067;-82
2024/01/12 12:02:50;;;;;;;9.45;3.40;;;;;;;;;;5047351;28;20523;-81
2024/01/12 12:05:18;;;;;;;8.75;3.42;;;;;;;;;;5050131;28;20057;-80
2024/01/12 12:07:46;;;;;;;9.35;3.60;;;;;;;;;;5047391;28;20097;-81
2024/01/12 12:10:12;;;;;;;8.98;3.42;;;;;;;;;;5044895;28;20067;-81
2024/01/12 12:12:39;;;;;;;;;;;;;;;;;;5050414;28;20181;-80
2024/01/12 12:15:06;;;;;;;;;;;;;;;;;;5045617;28;20003;-81
2024/01/12 12:17:39;;;;;;;9.50;4.25;;;;;;;;;;5052315;28;19989;-81
2024/01/12 12:20:15;;;;;;;13.18;4.95;;;;;;;;;;5049869;28;20523;-80
2024/01/12 12:22:44;;;;;;;9.63;4.30;;;;;;;;;;5056267;28;20125;-81
2024/01/12 12:25:13;;;;;;;9.13;4.38;;;;;;;;;;5030819;28;20029;-81
2024/01/12 12:27:43;;;;;;;9.63;4.22;;;;;;;;;;5052572;28;20717;-81
2024/01/12 12:30:15;;;;;;;8.75;3.67;;;;;;;;;;5051915;28;20043;-82
2024/01/12 12:32:47;;;;;;;8.75;3.30;;;;;;;;;;5052229;28;20043;-82
2024/01/12 12:35:14;;;;;;;8.65;3.60;;;;;;;;;;5049168;28;20150;-80
2024/01/12 12:37:42;;;;;;;9.30;3.53;;;;;;;;;;5054891;28;20024;-80
2024/01/12 12:40:11;;;;;;;8.23;3.58;;;;;;;;;;5045957;28;20025;-80
2024/01/12 12:42:41;;;;;;;11.80;5.25;;;;;;;;;;5051932;28;20032;-80
2024/01/12 12:45:12;;;;;;;9.65;4.72;;;;;;;;;;5048526;28;20027;-81
2024/01/12 12:47:40;;;;;;;8.98;3.92;;;;;;;;;;5052895;28;20508;-81
2024/01/12 12:50:09;;;;;;;9.75;4.20;;;;;;;;;;5049249;28;20036;-80
2024/01/12 12:52:38;;;;;;;8.27;3.88;;;;;;;;;;5050979;28;20032;-81
2024/01/12 12:55:06;;;;;;;9.05;3.85;;;;;;;;;;5049578;28;20039;-81
2024/01/12 12:57:34;;;;;;;9.15;3.13;;;;;;;;;;5050793;28;20135;-80
2024/01/12 13:00:01;;;;;;;9.60;4.30;;;;;;;;;;5035831;28;20673;-80
2024/01/12 13:02:30;;;;;;;10.00;4.45;;;;;;;;;;5048745;28;20035;-81
2024/01/12 13:04:57;;;;;;;8.38;3.38;;;;;;;;;;5051527;28;20083;-80
2024/01/12 13:07:25;;;;;;;10.73;4.00;;;;;;;;;;5049928;28;20512;-83
2024/01/12 13:09:52;;;;;;;6.53;2.28;;;;;;;;;;5054418;28;20059;-80
2024/01/12 13:12:20;;;;;;;8.10;3.63;;;;;;;;;;5034351;28;20055;-82
2024/01/12 13:14:47;;;;;;;8.75;3.88;;;;;;;;;;5050992;28;20621;-82
2024/01/12 13:17:14;;;;;;;8.13;3.40;;;;;;;;;;5049292;28;20020;-81
2024/01/12 13:19:43;;;;;;;6.50;2.30;;;;;;;;;;5051330;28;20200;-81
2024/01/12 13:22:12;;;;;;;6.88;2.75;;;;;;;;;;5048243;28;20037;-80
2024/01/12 13:24:39;;;;;;;6.32;2.60;;;;;;;;;;5049406;28;20026;-79
2024/01/12 13:27:05;;;;;;;8.10;2.95;;;;;;;;;;5058435;28;20051;-80
2024/01/12 13:29:33;;;;;;;8.48;3.63;;;;;;;;;;5048505;28;20020;-80
2024/01/12 13:31:59;;;;;;;8.75;4.00;;;;;;;;;;5067685;28;20032;-79
2024/01/12 13:34:28;;;;;;;9.13;4.13;;;;;;;;;;5052530;28;20055;-80
2024/01/12 13:37:01;;;;;;;8.02;3.72;;;;;;;;;;5050257;28;21602;-81
2024/01/12 13:39:30;;;;;;;8.82;3.67;;;;;;;;;;5067518;28;20040;-80
2024/01/12 13:41:56;;;;;;;8.32;4.10;;;;;;;;;;5051787;28;20037;-80
2024/01/12 13:44:24;;;;;;;9.23;3.50;;;;;;;;;;5049449;28;20669;-79
2024/01/12 13:46:52;;;;;;;7.55;3.40;;;;;;;;;;5051912;28;20122;-78
2024/01/12 13:49:19;;;;;;;7.57;2.80;;;;;;;;;;5063422;28;20039;-79
2024/01/12 13:51:48;;;;;;;6.80;2.78;;;;;;;;;;5050526;28;20031;-80
2024/01/12 13:54:16;;;;;;;8.65;3.30;;;;;;;;;;5066723;28;20139;-80
2024/01/12 13:56:43;;;;;;;9.25;3.45;;;;;;;;;;5068007;28;20043;-82
2024/01/12 13:59:10;;;;;;;10.32;5.47;;;;;;;;;;5059963;28;20024;-80
2024/01/12 14:01:40;;;;;;;9.63;4.68;;;;;;;;;;5063392;28;20717;-80
2024/01/12 14:04:07;;;;;;;9.00;4.70;;;;;;;;;;5049936;28;20776;-81
2024/01/12 14:06:36;;;;;;;13.20;7.00;;;;;;;;;;5065749;28;20036;-81
2024/01/12 14:09:06;;;;;;;13.93;8.05;;;;;;;;;;5065854;28;20047;-82
2024/01/12 14:11:35;;;;;;;13.55;5.95;;;;;;;;;;5047444;28;20427;-81
2024/01/12 14:14:03;;;;;;;9.30;4.10;;;;;;;;;;5046964;28;20177;-79
2024/01/12 14:16:30;;;;;;;9.73;3.88;;;;;;;;;;5051237;28;20147;-81
2024/01/12 14:18:59;;;;;;;8.73;3.78;;;;;;;;;;5056279;28;20687;-81
2024/01/12 14:21:26;;;;;;;11.95;3.85;;;;;;;;;;5073570;28;20048;-80
2024/01/12 14:23:54;;;;;;;11.90;6.13;;;;;;;;;;5064068;28;20044;-80
2024/01/12 14:26:21;;;;;;;12.00;6.18;;;;;;;;;;5059982;28;20052;-81
2024/01/12 14:28:48;;;;;;;9.15;4.15;;;;;;;;;;5046139;28;20610;-80
2024/01/12 14:31:15;;;;;;;8.68;3.80;;;;;;;;;;5043464;28;20032;-80
2024/01/12 14:33:43;;;;;;;9.00;4.72;;;;;;;;;;5044869;28;20134;-81
2024/01/12 14:36:11;;;;;;;9.63;4.30;;;;;;;;;;5047097;28;20032;-80
2024/01/12 14:38:39;;;;;;;8.38;3.78;;;;;;;;;;5054137;28;20037;-80
2024/01/12 14:41:05;;;;;;;8.90;3.90;;;;;;;;;;5045944;28;20028;-80
2024/01/12 14:43:32;;;;;;;7.93;3.28;;;;;;;;;;5052638;28;20043;-81
2024/01/12 14:45:58;;;;;;;11.02;3.65;;;;;;;;;;5050849;28;20107;-80
2024/01/12 14:48:24;;;;;;;7.43;3.00;;;;;;;;;;5043831;28;20849;-80
2024/01/12 14:50:51;;;;;;;6.93;2.88;;;;;;;;;;5049313;28;20905;-81